CheckWX is a tool to help pilots better visualize weather data.  It is not intended as a substitute for an official pre-flight weather briefing.

06:05:37 UTC

N03 METAR
Cortland County-Chase Field Airport
Cortland, New York, USA
Current

11 mins ago

KN03 260555Z AUTO 00000KT 10SM CLR 13/13 A3001 RMK AO2
Observed
Jun-26 @ 05:55 UTC
Visibility
10 SM
Flight Rules
VFR
Cloud Levels
  • Clear skies
Temperature
13°C / 55°F
Dewpoint
13°C / 55°F
Humidity
100%
Altimeter
30.01" Hg
Pressure
1016.22 hPa
Previous

31 mins ago

KN03 260535Z AUTO 00000KT 10SM CLR 13/13 A3001 RMK AO2
Observed
Jun-26 @ 05:35 UTC
Visibility
10 SM
Flight Rules
VFR
Cloud Levels
  • Clear skies
Temperature
13°C / 55°F
Dewpoint
13°C / 55°F
Humidity
100%
Altimeter
30.01" Hg
Pressure
1016.22 hPa
Previous

51 mins ago

KN03 260515Z AUTO 00000KT 10SM CLR 13/13 A3001 RMK AO2
Observed
Jun-26 @ 05:15 UTC
Visibility
10 SM
Flight Rules
VFR
Cloud Levels
  • Clear skies
Temperature
13°C / 55°F
Dewpoint
13°C / 55°F
Humidity
100%
Altimeter
30.01" Hg
Pressure
1016.22 hPa